Terminal Aerodrome Forecast
Issued by NWS Grand Forks, ND

Home | Current Version | Previous Version | Graphics & Text | Print | Product List | Glossary On
Versions: 1 2 3 4 5 6 7 8 9 10 11 12
000
FTUS43 KFGF 021139
TAFFAR
TAF
KFAR 021139Z 0212/0312 01011KT P6SM VCTS BKN080CB
     FM021400 34013KT P6SM BKN080
     FM021600 34014G22KT P6SM SCT035 SCT120
     FM030100 32006KT P6SM SKC=

USA.gov is the U.S. government's official web portal to all federal, state and local government web resources and services.